createdAt,value
2019-05-30T00:01:12.343Z,98.50
2019-05-30T00:03:38.396Z,98.50
2019-05-30T00:06:04.651Z,98.40
2019-05-30T00:08:30.840Z,98.40
2019-05-30T00:10:56.912Z,98.80
2019-05-30T00:13:22.973Z,99.10
2019-05-30T00:15:49.033Z,99.10
2019-05-30T00:18:15.102Z,98.80
2019-05-30T00:20:41.263Z,98.80
2019-05-30T00:23:07.330Z,98.90
2019-05-30T00:25:33.408Z,99.10
2019-05-30T00:27:59.463Z,99.30
2019-05-30T00:30:25.524Z,99.30
2019-05-30T00:32:51.601Z,99.90
2019-05-30T00:35:17.646Z,99.60
2019-05-30T00:37:43.721Z,99.60
2019-05-30T00:40:10.097Z,99.90
2019-05-30T00:42:36.176Z,99.90
2019-05-30T00:45:18.002Z,99.90
2019-05-30T00:47:31.811Z,99.90
2019-05-30T00:49:58.169Z,99.90
2019-05-30T00:52:24.358Z,99.90
2019-05-30T00:54:50.419Z,99.90
2019-05-30T00:57:16.476Z,99.90
2019-05-30T00:59:42.605Z,99.90
2019-05-30T01:02:08.799Z,99.90
2019-05-30T01:04:34.856Z,99.90
2019-05-30T01:07:01.009Z,99.90
2019-05-30T01:09:27.080Z,99.90
2019-05-30T01:11:53.135Z,99.90
2019-05-30T01:14:19.200Z,99.90
2019-05-30T01:16:45.260Z,99.90
2019-05-30T01:19:11.369Z,99.90
2019-05-30T01:21:37.595Z,99.90
2019-05-30T01:24:03.869Z,99.90
2019-05-30T01:26:29.925Z,99.90
2019-05-30T01:28:57.277Z,99.90
2019-05-30T01:31:23.456Z,99.90
2019-05-30T01:33:49.503Z,99.90
2019-05-30T01:36:15.560Z,99.90
2019-05-30T01:38:41.624Z,99.90
2019-05-30T01:41:08.078Z,99.90
2019-05-30T01:43:34.340Z,99.90
2019-05-30T01:46:00.400Z,99.90
2019-05-30T01:48:26.568Z,99.90
2019-05-30T01:50:52.624Z,99.90
2019-05-30T01:53:18.724Z,99.90
2019-05-30T01:55:44.851Z,99.90
2019-05-30T01:58:11.030Z,99.90
2019-05-30T02:00:38.697Z,99.90
2019-05-30T02:03:06.953Z,99.90
2019-05-30T02:05:33.333Z,99.90
2019-05-30T02:07:59.379Z,99.90
2019-05-30T02:10:25.455Z,99.90
2019-05-30T02:12:51.533Z,99.90
2019-05-30T02:15:17.679Z,99.90
2019-05-30T02:17:43.764Z,99.90
2019-05-30T02:20:10.360Z,99.90
2019-05-30T02:22:36.437Z,99.90
2019-05-30T02:25:06.088Z,99.90
2019-05-30T02:27:32.268Z,99.90
2019-05-30T02:29:58.347Z,99.90
2019-05-30T02:32:24.413Z,99.90
2019-05-30T02:34:50.480Z,99.90
2019-05-30T02:37:16.548Z,99.90
2019-05-30T02:39:42.617Z,99.90
2019-05-30T02:42:09.606Z,99.90
2019-05-30T02:44:36.354Z,99.90
2019-05-30T02:47:03.596Z,99.90
2019-05-30T02:49:30.600Z,99.90
2019-05-30T02:51:56.709Z,99.90
2019-05-30T02:54:22.928Z,99.90
2019-05-30T02:56:49.000Z,99.90
2019-05-30T02:59:15.170Z,99.90
2019-05-30T03:01:58.990Z,99.90
2019-05-30T03:04:10.992Z,99.90
2019-05-30T03:06:37.578Z,99.90
2019-05-30T03:09:06.782Z,99.90
2019-05-30T03:11:34.117Z,99.90
2019-05-30T03:14:02.140Z,99.90
2019-05-30T03:16:28.564Z,99.90
2019-05-30T03:18:54.941Z,99.90
2019-05-30T03:21:20.994Z,99.90
2019-05-30T03:23:47.074Z,99.90
2019-05-30T03:26:15.718Z,99.90
2019-05-30T03:28:41.193Z,99.90
2019-05-30T03:31:13.870Z,99.90
2019-05-30T03:33:41.571Z,99.90
2019-05-30T03:36:09.022Z,99.90
2019-05-30T03:38:32.284Z,99.90
2019-05-30T03:40:58.452Z,99.90
2019-05-30T03:43:24.520Z,99.90
2019-05-30T03:45:50.594Z,99.90
2019-05-30T03:48:19.739Z,99.90
2019-05-30T03:50:49.622Z,99.90
2019-05-30T03:53:16.282Z,99.90
2019-05-30T03:55:46.353Z,99.90
2019-05-30T03:58:31.396Z,99.90
2019-05-30T04:01:01.273Z,99.90
2019-05-30T04:03:43.434Z,99.90
2019-05-30T04:06:28.549Z,99.90
2019-05-30T04:08:58.431Z,99.90
2019-05-30T04:11:28.296Z,99.90
2019-05-30T04:14:00.857Z,99.90
2019-05-30T04:16:26.935Z,99.90
2019-05-30T04:18:52.997Z,99.90
2019-05-30T04:21:21.525Z,99.90
2019-05-30T04:23:47.054Z,99.90
2019-05-30T04:26:13.713Z,99.90
2019-05-30T04:28:40.067Z,99.90
2019-05-30T04:31:07.994Z,99.90
2019-05-30T04:33:34.206Z,99.90
2019-05-30T04:36:00.280Z,99.90
2019-05-30T04:38:26.336Z,99.90
2019-05-30T04:40:52.395Z,99.90
2019-05-30T04:43:20.024Z,99.90
2019-05-30T04:45:46.530Z,99.90
2019-05-30T04:48:13.965Z,99.90
2019-05-30T04:50:40.273Z,99.90
2019-05-30T04:53:06.331Z,99.90
2019-05-30T04:55:32.404Z,99.90
2019-05-30T04:57:58.465Z,99.90
2019-05-30T05:00:24.616Z,99.90
2019-05-30T05:02:50.697Z,99.90
2019-05-30T05:05:22.633Z,99.90
2019-05-30T05:07:44.817Z,99.90
2019-05-30T05:10:12.068Z,99.90
2019-05-30T05:12:38.263Z,99.90
2019-05-30T05:15:04.832Z,99.90
2019-05-30T05:17:30.890Z,99.90
2019-05-30T05:19:57.380Z,99.90
2019-05-30T05:22:23.453Z,99.90
2019-05-30T05:24:49.591Z,99.90
2019-05-30T05:27:15.671Z,99.90
2019-05-30T05:29:41.729Z,99.90
2019-05-30T05:32:07.787Z,99.90
2019-05-30T05:34:33.860Z,99.90
2019-05-30T05:37:00.020Z,99.90
2019-05-30T05:39:26.102Z,99.90
2019-05-30T05:41:52.163Z,99.90
2019-05-30T05:44:18.348Z,99.90
2019-05-30T05:46:44.502Z,99.90
2019-05-30T05:49:10.568Z,99.90
2019-05-30T05:51:36.627Z,99.90
2019-05-30T05:54:02.710Z,99.90
2019-05-30T05:56:29.165Z,99.90
2019-05-30T05:58:55.328Z,99.90
2019-05-30T06:01:21.554Z,99.90
2019-05-30T06:03:47.759Z,99.90
2019-05-30T06:06:13.810Z,99.90
2019-05-30T06:08:39.885Z,99.90
2019-05-30T06:11:05.936Z,99.90
2019-05-30T06:13:32.017Z,99.90
2019-05-30T06:15:58.090Z,99.90
2019-05-30T06:18:24.240Z,99.90
2019-05-30T06:20:50.536Z,99.90
2019-05-30T06:23:17.335Z,99.90
2019-05-30T06:25:43.571Z,99.90
2019-05-30T06:28:09.644Z,99.90
2019-05-30T06:30:35.787Z,99.90
2019-05-30T06:33:01.869Z,99.90
2019-05-30T06:35:29.393Z,99.90
2019-05-30T06:37:55.783Z,99.90
2019-05-30T06:40:21.844Z,99.90
2019-05-30T06:42:47.912Z,99.70
2019-05-30T06:45:14.199Z,99.90
2019-05-30T06:47:40.365Z,99.70
2019-05-30T06:50:07.015Z,99.80
2019-05-30T06:52:33.093Z,99.90
2019-05-30T06:54:59.153Z,99.60
2019-05-30T06:57:25.307Z,98.80
2019-05-30T06:59:51.468Z,99.00
2019-05-30T07:02:17.550Z,99.00
2019-05-30T07:04:51.403Z,97.80
2019-05-30T07:07:11.967Z,97.70
2019-05-30T07:09:38.351Z,97.70
2019-05-30T07:12:04.524Z,97.90
2019-05-30T07:14:31.471Z,97.80
2019-05-30T07:16:57.742Z,96.40
2019-05-30T07:19:23.820Z,96.80
2019-05-30T07:21:49.881Z,97.40
2019-05-30T07:24:16.043Z,97.70
2019-05-30T07:26:42.104Z,97.10
2019-05-30T07:29:08.156Z,96.30
2019-05-30T07:31:34.448Z,96.70
2019-05-30T07:34:00.615Z,96.30
2019-05-30T07:36:26.668Z,95.70
2019-05-30T07:38:52.729Z,94.60
2019-05-30T07:41:18.790Z,94.70
2019-05-30T07:43:44.839Z,94.90
2019-05-30T07:46:11.016Z,94.70
2019-05-30T07:48:37.081Z,94.20
2019-05-30T07:51:03.244Z,94.80
2019-05-30T07:53:29.321Z,94.60
2019-05-30T07:55:55.363Z,93.70
2019-05-30T07:58:21.530Z,94.20
2019-05-30T08:00:47.587Z,94.50
2019-05-30T08:03:13.647Z,94.30
2019-05-30T08:05:39.724Z,92.40
2019-05-30T08:08:05.778Z,92.90
2019-05-30T08:10:32.040Z,92.40
2019-05-30T08:12:58.321Z,92.40
2019-05-30T08:15:24.476Z,91.70
2019-05-30T08:17:51.244Z,92.70
2019-05-30T08:20:17.498Z,92.20
2019-05-30T08:22:43.572Z,92.00
2019-05-30T08:25:10.340Z,91.80
2019-05-30T08:27:36.566Z,92.40
2019-05-30T08:30:08.577Z,90.70
2019-05-30T08:32:34.662Z,91.40
2019-05-30T08:35:00.899Z,92.00
2019-05-30T08:37:26.960Z,89.60
2019-05-30T08:39:53.028Z,90.40
2019-05-30T08:42:19.084Z,90.00
2019-05-30T08:44:45.192Z,86.50
2019-05-30T08:47:11.255Z,87.30
2019-05-30T08:49:38.260Z,87.40
2019-05-30T08:52:04.569Z,87.80
2019-05-30T08:54:30.627Z,82.40
2019-05-30T08:56:56.693Z,84.50
2019-05-30T08:59:22.768Z,82.80
2019-05-30T09:01:52.941Z,84.00
2019-05-30T09:04:16.789Z,81.00
2019-05-30T09:06:44.078Z,79.90
2019-05-30T09:09:10.334Z,78.90
2019-05-30T09:11:37.702Z,80.50
2019-05-30T09:14:04.463Z,80.70
2019-05-30T09:16:30.633Z,78.00
2019-05-30T09:18:56.700Z,80.00
2019-05-30T09:21:22.783Z,77.10
2019-05-30T09:23:48.853Z,74.60
2019-05-30T09:26:14.927Z,72.40
2019-05-30T09:28:42.124Z,75.30
2019-05-30T09:31:08.356Z,75.80
2019-05-30T09:33:34.424Z,73.60
2019-05-30T09:36:12.593Z,73.40
2019-05-30T09:38:28.460Z,72.40
2019-05-30T09:40:54.521Z,73.10
2019-05-30T09:43:20.604Z,70.70
2019-05-30T09:45:46.652Z,72.50
2019-05-30T09:48:12.708Z,72.80
2019-05-30T09:50:38.794Z,72.40
2019-05-30T09:53:04.940Z,71.90
2019-05-30T09:55:31.193Z,70.40
2019-05-30T09:57:57.303Z,71.80
2019-05-30T10:00:23.468Z,74.10
2019-05-30T10:02:50.533Z,70.60
2019-05-30T10:05:17.612Z,69.80
2019-05-30T10:07:45.553Z,70.10
2019-05-30T10:10:13.995Z,69.70
2019-05-30T10:12:40.088Z,71.10
2019-05-30T10:15:08.452Z,70.80
2019-05-30T10:17:34.511Z,70.10
2019-05-30T10:20:00.581Z,68.00
2019-05-30T10:22:26.643Z,70.00
2019-05-30T10:24:53.361Z,70.60
2019-05-30T10:27:19.591Z,69.60
2019-05-30T10:29:46.331Z,69.20
2019-05-30T10:32:13.617Z,70.20
2019-05-30T10:34:39.708Z,70.20
2019-05-30T10:37:05.884Z,66.70
2019-05-30T10:39:31.980Z,66.10
2019-05-30T10:41:58.026Z,67.50
2019-05-30T10:44:24.092Z,64.90
2019-05-30T10:46:50.971Z,66.10
2019-05-30T10:49:31.510Z,64.20
2019-05-30T10:51:46.747Z,66.00
2019-05-30T10:54:13.532Z,70.00
2019-05-30T10:56:39.596Z,67.90
2019-05-30T10:59:05.641Z,68.20
2019-05-30T11:01:31.703Z,65.20
2019-05-30T11:03:57.756Z,66.60
2019-05-30T11:06:27.627Z,67.40
2019-05-30T11:08:54.843Z,68.80
2019-05-30T11:11:21.015Z,67.80
2019-05-30T11:13:47.060Z,68.20
2019-05-30T11:16:13.128Z,69.60
2019-05-30T11:18:39.346Z,63.70
2019-05-30T11:21:05.460Z,67.00
2019-05-30T11:23:31.535Z,62.80
2019-05-30T11:25:58.820Z,63.40
2019-05-30T11:28:25.144Z,63.10
2019-05-30T11:30:51.202Z,63.60
2019-05-30T11:33:17.365Z,65.70
2019-05-30T11:35:43.420Z,66.00
2019-05-30T11:38:09.526Z,65.00
2019-05-30T11:40:35.670Z,65.20
2019-05-30T11:43:01.824Z,66.60
2019-05-30T11:45:28.187Z,66.30
2019-05-30T11:47:55.661Z,64.20
2019-05-30T11:50:22.108Z,64.90
2019-05-30T11:52:49.733Z,62.20
2019-05-30T11:55:16.140Z,65.50
2019-05-30T11:57:42.192Z,61.70
2019-05-30T12:00:09.164Z,62.20
2019-05-30T12:02:35.284Z,59.50
2019-05-30T12:05:01.429Z,64.80
2019-05-30T12:07:36.463Z,63.00
2019-05-30T12:09:55.465Z,63.60
2019-05-30T12:12:21.644Z,61.50
2019-05-30T12:14:47.730Z,60.20
2019-05-30T12:17:13.879Z,59.40
2019-05-30T12:19:39.959Z,57.70
2019-05-30T12:22:06.104Z,58.40
2019-05-30T12:24:32.192Z,58.30
2019-05-30T12:26:58.352Z,57.80
2019-05-30T12:29:24.410Z,58.20
2019-05-30T12:31:50.462Z,57.30
2019-05-30T12:34:16.619Z,58.20
2019-05-30T12:36:42.677Z,59.30
2019-05-30T12:39:08.728Z,58.20
2019-05-30T12:41:34.795Z,57.00
2019-05-30T12:44:01.344Z,56.80
2019-05-30T12:46:27.629Z,56.60
2019-05-30T12:48:53.681Z,56.70
2019-05-30T12:51:19.783Z,56.10
2019-05-30T12:53:45.827Z,56.80
2019-05-30T12:56:11.900Z,57.10
2019-05-30T12:58:38.053Z,57.70
2019-05-30T13:01:04.103Z,56.60
2019-05-30T13:03:30.172Z,54.50
2019-05-30T13:05:57.072Z,53.20
2019-05-30T13:08:23.263Z,52.30
2019-05-30T13:10:49.325Z,51.90
2019-05-30T13:13:15.474Z,52.10
2019-05-30T13:15:41.531Z,52.00
2019-05-30T13:18:07.599Z,52.40
2019-05-30T13:20:33.859Z,51.10
2019-05-30T13:23:00.569Z,53.40
2019-05-30T13:25:26.714Z,52.40
2019-05-30T13:27:52.772Z,51.90
2019-05-30T13:30:19.124Z,50.20
2019-05-30T13:32:45.217Z,51.40
2019-05-30T13:35:12.146Z,51.90
2019-05-30T13:37:38.226Z,50.30
2019-05-30T13:40:19.294Z,52.60
2019-05-30T13:42:33.620Z,51.10
2019-05-30T13:44:59.956Z,49.90
2019-05-30T13:47:26.180Z,49.50
2019-05-30T13:49:52.248Z,50.80
2019-05-30T13:52:18.296Z,49.50
2019-05-30T13:54:44.351Z,47.70
2019-05-30T13:57:10.415Z,46.60
2019-05-30T13:59:36.466Z,47.40
2019-05-30T14:02:03.884Z,46.80
2019-05-30T14:33:51.267Z,79.40
2019-05-30T14:36:17.352Z,68.00
2019-05-30T14:38:57.232Z,66.90
2019-05-30T14:41:11.939Z,66.00
2019-05-30T14:43:39.372Z,63.50
2019-05-30T14:46:06.272Z,63.80
2019-05-30T14:48:32.496Z,63.10
2019-05-30T14:50:58.561Z,63.10
2019-05-30T14:53:24.628Z,38.90
2019-05-30T14:55:50.684Z,38.60
2019-05-30T14:58:17.781Z,36.70
2019-05-30T15:00:44.108Z,36.30
2019-05-30T15:03:13.922Z,35.30
2019-05-30T15:05:38.176Z,35.70
2019-05-30T15:08:04.642Z,34.80
2019-05-30T15:10:30.796Z,36.30
2019-05-30T15:12:56.850Z,35.70
2019-05-30T15:15:22.924Z,37.10
2019-05-30T15:17:49.025Z,37.10
2019-05-30T15:20:15.951Z,38.20
2019-05-30T15:22:42.035Z,37.70
2019-05-30T15:25:08.204Z,37.50
2019-05-30T15:27:34.382Z,37.10
2019-05-30T15:30:00.574Z,35.40
2019-05-30T19:14:58.484Z,69.20
2019-05-30T19:54:08.021Z,49.30
2019-05-30T19:56:37.434Z,49.90
2019-05-30T19:59:02.260Z,50.50
2019-05-30T20:01:29.656Z,53.30
2019-05-30T20:13:45.994Z,52.90
2019-05-30T20:16:12.053Z,53.30
2019-05-30T20:18:38.124Z,54.10
2019-05-30T20:21:04.189Z,54.00
2019-05-30T20:23:30.360Z,54.90
2019-05-30T20:25:56.537Z,55.00
2019-05-30T20:28:22.592Z,55.40
2019-05-30T20:30:48.648Z,55.80
2019-05-30T20:33:14.730Z,56.30
2019-05-30T20:35:42.141Z,56.50
2019-05-30T20:38:08.742Z,56.80
2019-05-30T20:40:34.941Z,57.00
2019-05-30T20:43:01.192Z,57.60
2019-05-30T20:45:27.248Z,58.40
2019-05-30T20:47:53.312Z,58.20
2019-05-30T20:50:19.803Z,58.50
2019-05-30T20:52:45.920Z,58.80
2019-05-30T20:55:12.632Z,59.70
2019-05-30T20:57:38.697Z,60.00
2019-05-30T21:00:07.668Z,60.30
2019-05-30T21:02:34.645Z,61.30
2019-05-30T21:05:00.798Z,61.90
2019-05-30T21:07:27.148Z,62.40
2019-05-30T21:09:53.494Z,63.10
2019-05-30T21:12:36.358Z,63.80
2019-05-30T21:14:51.297Z,64.30
2019-05-30T21:17:18.653Z,65.40
2019-05-30T21:19:45.838Z,66.30
2019-05-30T21:22:12.283Z,66.60
2019-05-30T21:24:38.589Z,67.10
2019-05-30T21:27:04.824Z,68.00
2019-05-30T21:29:30.876Z,68.90
2019-05-30T21:31:56.940Z,70.00
2019-05-30T21:34:23.012Z,70.40
2019-05-30T21:36:49.060Z,71.70
2019-05-30T21:39:15.124Z,72.30
2019-05-30T21:41:42.241Z,73.00
2019-05-30T21:44:08.464Z,73.60
2019-05-30T21:46:34.517Z,74.90
2019-05-30T21:49:00.583Z,75.80
2019-05-30T21:51:26.652Z,76.70
2019-05-30T21:53:52.795Z,76.80
2019-05-30T21:56:18.852Z,80.90
2019-05-30T21:58:46.264Z,82.00
2019-05-30T22:01:19.295Z,82.40
2019-05-30T22:03:46.505Z,83.20
2019-05-30T22:06:12.819Z,82.60
2019-05-30T22:08:38.972Z,83.00
2019-05-30T22:11:05.149Z,84.00
2019-05-30T22:13:31.307Z,83.90
2019-05-30T22:15:57.385Z,84.80
2019-05-30T22:18:23.452Z,84.80
2019-05-30T22:20:49.953Z,85.50
2019-05-30T22:23:16.090Z,85.40
2019-05-30T22:25:42.182Z,85.40
2019-05-30T22:28:08.302Z,85.90
2019-05-30T22:30:34.377Z,86.20
2019-05-30T22:33:00.432Z,87.10
2019-05-30T22:35:26.488Z,86.90
2019-05-30T22:37:53.087Z,87.60
2019-05-30T22:40:19.315Z,87.30
2019-05-30T22:42:46.274Z,87.80
2019-05-30T22:45:12.555Z,88.10
2019-05-30T22:47:38.613Z,88.90
2019-05-30T22:50:05.204Z,89.00
2019-05-30T22:52:31.255Z,89.30
2019-05-30T22:54:57.408Z,89.30
2019-05-30T22:57:23.504Z,89.60
2019-05-30T22:59:49.559Z,90.00
2019-05-30T23:02:15.624Z,90.00
2019-05-30T23:04:41.700Z,90.30
2019-05-30T23:07:07.759Z,90.20
2019-05-30T23:09:33.832Z,90.50
2019-05-30T23:11:59.923Z,90.50
2019-05-30T23:14:26.086Z,91.20
2019-05-30T23:16:52.345Z,91.00
2019-05-30T23:19:18.425Z,91.30
2019-05-30T23:21:44.492Z,91.30
2019-05-30T23:24:10.563Z,91.80
2019-05-30T23:26:36.740Z,91.70
2019-05-30T23:29:02.912Z,91.90
2019-05-30T23:31:28.991Z,91.70
2019-05-30T23:33:56.375Z,91.70
2019-05-30T23:36:22.751Z,91.80
2019-05-30T23:38:48.917Z,92.10
2019-05-30T23:41:15.001Z,92.10
2019-05-30T23:43:55.454Z,91.90
2019-05-30T23:46:09.011Z,92.50
2019-05-30T23:48:35.088Z,92.30
2019-05-30T23:51:01.157Z,92.30
2019-05-30T23:53:27.215Z,92.60
2019-05-30T23:55:54.276Z,92.60
2019-05-30T23:58:20.564Z,92.80
